KSEAPAGY

Guest
Details From KSEA - Seattle Tacoma Intl
To PAGY - Skagway
Flight Number -
Tags Generated
Created
Modified
Stats Distance 855 nm / 1,583 km
Max Altitude 0 ft / 0 m
Waypoints 4
Social Downloads 0
Likes 0
Share VATSIM

Download

Looking for another format? Having issues loading an existing format? Contact us
Advertisement - Login to hide

Notes

Generated

Route

KSEA RIBIT 11380 PAGY

ID Type Via Altitude Latitude Longitude Leg Dist Tot Dist Heading (true) Name
O KSEA APT - 0 ft / 0 m 47.46383˚ -122.31786˚ - 0 nm - -
RIBIT FIX - 0 ft / 0 m 55.90556˚ -129.91861˚ 579 nm 579 nm 334° / 328° -
11380 FIX - 0 ft / 0 m 59.41261˚ -135.20033˚ 270 nm 850 nm 323° / 319° -
O PAGY APT - 0 ft / 0 m 59.45657˚ -135.32229˚ 4 nm 854 nm 305° / 305° SKAGWAY

Altitude Profile

Advertisement - Login to hide

Weather


0- 5 10 15 20 25 30 35+ Temperature / ° C

Clouds and Precipitation
Forecast for 2017-12-13 06:00 UTC. Updated 13 minutes ago

Ground ~20,000 ft ~40,000 ft Winds

KSEA

Details ICAO KSEA (SEA)
Name Seattle Tacoma Intl
Region United States
Timezone America/Los_Angeles (UTC-8.0)
Stats Elevation 433 ft / 132 m (AMSL)
Location 47.450188° -122.312320°
Runways 3
Magnetic Variation 15.685° E

METAR

KSEA 130453Z 01005KT 10SM BKN160 05/01 A3039 RMK AO2 SLP299 T00500006

Decode

TAF

KSEA 130329Z 1303/1406 VRB03KT P6SM SCT200 FM131300 03006KT 1/2SM FG BKN001 FM132100 03006KT 5SM BR SCT002 FM132300 01006KT P6SM SKC

Decode

Departure Runways

ID Width Length Bearing (true) Bearing (mag) Surface Threshold Offset Overrun Length
16C 151 ft / 46 m 9,429 ft / 2,874 m 180.34° 164.65° Concrete 0 ft / 0 m 223 ft / 68 m
16L 151 ft / 46 m 11,904 ft / 3,628 m 180.34° 164.65° Concrete 0 ft / 0 m 151 ft / 46 m
16R 151 ft / 46 m 8,503 ft / 2,592 m 180.34° 164.65° Concrete 0 ft / 0 m 164 ft / 50 m
34C 151 ft / 46 m 9,429 ft / 2,874 m 0.34° 344.65° Concrete 0 ft / 0 m 394 ft / 120 m
34L 151 ft / 46 m 8,503 ft / 2,592 m 0.34° 344.65° Concrete 0 ft / 0 m 394 ft / 120 m
34R 151 ft / 46 m 11,904 ft / 3,628 m 0.34° 344.65° Concrete 0 ft / 0 m 400 ft / 122 m

PAGY

Details ICAO PAGY (SGY)
Name SKAGWAY
Region USA (Alaska)
Timezone America/Juneau (UTC-9.0)
Stats Elevation 44 ft / 13 m (AMSL)
Location 59.460062° -135.315661°
Runways 1
Magnetic Variation 19.351° E

METAR

PAGY 130453Z AUTO 00000KT 10SM OVC011 06/04 A3031 RMK PRESRR SLP262 T00610044 TSNO $ VIA AUTODIAL

Decode

TAF

PAGY 130406Z 1304/1324 21008KT P6SM BKN020 FM130600 04006KT P6SM SCT040 BKN070 FM132300 21015G25KT P6SM -RA OVC030 AMD LTD TO CLD VIS AND WIND

Decode

Destination Runways

ID Width Length Bearing (true) Bearing (mag) Surface Threshold Offset Overrun Length
02 75 ft / 23 m 3,542 ft / 1,080 m 43.94° 24.59° Asphalt 0 ft / 0 m 299 ft / 91 m
20 75 ft / 23 m 3,542 ft / 1,080 m 223.95° 204.60° Asphalt 0 ft / 0 m 299 ft / 91 m